sensor_id;sensor_type;location;lat;lon;timestamp;P1;durP1;ratioP1;P2;durP2;ratioP2
51782;SDS011;37845;53.196;5.638;2023-06-26T00:00:42;28.08;;;24.70;;
51782;SDS011;37845;53.196;5.638;2023-06-26T00:03:08;30.15;;;25.25;;
51782;SDS011;37845;53.196;5.638;2023-06-26T00:05:34;35.78;;;25.52;;
51782;SDS011;37845;53.196;5.638;2023-06-26T00:07:59;35.38;;;26.83;;
51782;SDS011;37845;53.196;5.638;2023-06-26T00:10:28;29.90;;;26.77;;
51782;SDS011;37845;53.196;5.638;2023-06-26T00:12:54;34.55;;;24.98;;
51782;SDS011;37845;53.196;5.638;2023-06-26T00:15:20;29.48;;;23.92;;
51782;SDS011;37845;53.196;5.638;2023-06-26T00:17:45;28.73;;;25.10;;
51782;SDS011;37845;53.196;5.638;2023-06-26T00:20:11;33.40;;;25.05;;
51782;SDS011;37845;53.196;5.638;2023-06-26T00:22:37;39.78;;;25.52;;
51782;SDS011;37845;53.196;5.638;2023-06-26T00:25:06;32.45;;;27.08;;
51782;SDS011;37845;53.196;5.638;2023-06-26T00:27:32;33.85;;;26.80;;
51782;SDS011;37845;53.196;5.638;2023-06-26T00:29:58;29.20;;;25.30;;
51782;SDS011;37845;53.196;5.638;2023-06-26T00:32:24;35.15;;;25.42;;
51782;SDS011;37845;53.196;5.638;2023-06-26T00:34:50;30.65;;;24.85;;
51782;SDS011;37845;53.196;5.638;2023-06-26T00:37:16;30.17;;;23.88;;
51782;SDS011;37845;53.196;5.638;2023-06-26T00:39:42;34.47;;;27.33;;
51782;SDS011;37845;53.196;5.638;2023-06-26T00:42:07;35.08;;;25.55;;
51782;SDS011;37845;53.196;5.638;2023-06-26T00:44:33;39.10;;;28.08;;
51782;SDS011;37845;53.196;5.638;2023-06-26T00:46:59;28.77;;;24.42;;
51782;SDS011;37845;53.196;5.638;2023-06-26T00:49:25;31.70;;;26.08;;
51782;SDS011;37845;53.196;5.638;2023-06-26T00:51:52;27.38;;;24.38;;
51782;SDS011;37845;53.196;5.638;2023-06-26T00:54:19;37.08;;;27.58;;
51782;SDS011;37845;53.196;5.638;2023-06-26T00:56:47;33.60;;;27.77;;
51782;SDS011;37845;53.196;5.638;2023-06-26T00:59:13;32.95;;;25.52;;
51782;SDS011;37845;53.196;5.638;2023-06-26T01:01:40;34.28;;;25.63;;
51782;SDS011;37845;53.196;5.638;2023-06-26T01:04:05;34.35;;;25.15;;
51782;SDS011;37845;53.196;5.638;2023-06-26T01:06:31;28.52;;;23.95;;
51782;SDS011;37845;53.196;5.638;2023-06-26T01:09:02;26.65;;;23.85;;
51782;SDS011;37845;53.196;5.638;2023-06-26T01:11:28;32.53;;;25.58;;
51782;SDS011;37845;53.196;5.638;2023-06-26T01:13:54;28.33;;;24.23;;
51782;SDS011;37845;53.196;5.638;2023-06-26T01:16:21;33.65;;;26.73;;
51782;SDS011;37845;53.196;5.638;2023-06-26T01:18:48;27.67;;;24.90;;
51782;SDS011;37845;53.196;5.638;2023-06-26T01:21:14;30.23;;;26.08;;
51782;SDS011;37845;53.196;5.638;2023-06-26T01:26:19;31.20;;;24.70;;
51782;SDS011;37845;53.196;5.638;2023-06-26T01:28:46;32.95;;;27.00;;
51782;SDS011;37845;53.196;5.638;2023-06-26T01:31:14;28.80;;;24.27;;
51782;SDS011;37845;53.196;5.638;2023-06-26T01:33:41;30.63;;;24.50;;
51782;SDS011;37845;53.196;5.638;2023-06-26T01:36:08;30.15;;;23.63;;
51782;SDS011;37845;53.196;5.638;2023-06-26T01:38:34;34.25;;;25.90;;
51782;SDS011;37845;53.196;5.638;2023-06-26T01:41:00;36.28;;;27.77;;
51782;SDS011;37845;53.196;5.638;2023-06-26T01:46:18;33.90;;;26.83;;
51782;SDS011;37845;53.196;5.638;2023-06-26T01:51:58;38.00;;;27.60;;
51782;SDS011;37845;53.196;5.638;2023-06-26T01:57:45;32.40;;;27.58;;
51782;SDS011;37845;53.196;5.638;2023-06-26T02:00:13;36.10;;;28.75;;
51782;SDS011;37845;53.196;5.638;2023-06-26T02:02:43;30.20;;;25.75;;
51782;SDS011;37845;53.196;5.638;2023-06-26T02:05:09;28.85;;;25.05;;
51782;SDS011;37845;53.196;5.638;2023-06-26T02:07:35;33.10;;;22.90;;
51782;SDS011;37845;53.196;5.638;2023-06-26T02:10:01;26.50;;;19.20;;
51782;SDS011;37845;53.196;5.638;2023-06-26T02:12:28;26.00;;;19.40;;
51782;SDS011;37845;53.196;5.638;2023-06-26T02:14:54;27.23;;;16.45;;
51782;SDS011;37845;53.196;5.638;2023-06-26T02:17:19;26.25;;;15.82;;
51782;SDS011;37845;53.196;5.638;2023-06-26T02:19:45;23.08;;;14.65;;
51782;SDS011;37845;53.196;5.638;2023-06-26T02:22:14;25.00;;;16.58;;
51782;SDS011;37845;53.196;5.638;2023-06-26T02:24:40;33.42;;;15.20;;
51782;SDS011;37845;53.196;5.638;2023-06-26T02:27:06;21.58;;;15.48;;
51782;SDS011;37845;53.196;5.638;2023-06-26T02:29:32;26.42;;;16.55;;
51782;SDS011;37845;53.196;5.638;2023-06-26T02:31:58;29.63;;;18.58;;
51782;SDS011;37845;53.196;5.638;2023-06-26T02:34:24;31.25;;;17.48;;
51782;SDS011;37845;53.196;5.638;2023-06-26T02:36:49;24.25;;;17.58;;
51782;SDS011;37845;53.196;5.638;2023-06-26T02:39:15;30.48;;;17.77;;
51782;SDS011;37845;53.196;5.638;2023-06-26T02:41:41;44.90;;;21.17;;
51782;SDS011;37845;53.196;5.638;2023-06-26T02:44:08;38.05;;;18.38;;
51782;SDS011;37845;53.196;5.638;2023-06-26T02:46:36;30.77;;;18.50;;
51782;SDS011;37845;53.196;5.638;2023-06-26T02:49:02;42.95;;;20.60;;
51782;SDS011;37845;53.196;5.638;2023-06-26T02:51:28;32.35;;;23.40;;
51782;SDS011;37845;53.196;5.638;2023-06-26T02:53:53;31.75;;;21.65;;
51782;SDS011;37845;53.196;5.638;2023-06-26T02:56:19;32.25;;;21.95;;
51782;SDS011;37845;53.196;5.638;2023-06-26T02:58:45;34.50;;;24.88;;
51782;SDS011;37845;53.196;5.638;2023-06-26T03:01:11;30.95;;;22.02;;
51782;SDS011;37845;53.196;5.638;2023-06-26T03:03:36;32.78;;;20.70;;
51782;SDS011;37845;53.196;5.638;2023-06-26T03:06:06;40.13;;;21.77;;
51782;SDS011;37845;53.196;5.638;2023-06-26T03:08:36;26.75;;;21.35;;
51782;SDS011;37845;53.196;5.638;2023-06-26T03:11:02;35.92;;;20.30;;
51782;SDS011;37845;53.196;5.638;2023-06-26T03:13:28;46.15;;;19.58;;
51782;SDS011;37845;53.196;5.638;2023-06-26T03:15:53;39.58;;;22.02;;
51782;SDS011;37845;53.196;5.638;2023-06-26T03:18:19;30.65;;;18.80;;
51782;SDS011;37845;53.196;5.638;2023-06-26T03:20:45;34.03;;;20.70;;
51782;SDS011;37845;53.196;5.638;2023-06-26T03:23:11;30.80;;;19.90;;
51782;SDS011;37845;53.196;5.638;2023-06-26T03:25:36;34.88;;;20.33;;
51782;SDS011;37845;53.196;5.638;2023-06-26T03:28:02;32.95;;;19.63;;
51782;SDS011;37845;53.196;5.638;2023-06-26T03:30:28;29.02;;;19.08;;
51782;SDS011;37845;53.196;5.638;2023-06-26T03:32:54;34.65;;;19.77;;
51782;SDS011;37845;53.196;5.638;2023-06-26T03:35:19;40.40;;;21.02;;
51782;SDS011;37845;53.196;5.638;2023-06-26T03:37:45;38.53;;;20.52;;
51782;SDS011;37845;53.196;5.638;2023-06-26T03:40:11;33.50;;;19.95;;
51782;SDS011;37845;53.196;5.638;2023-06-26T03:42:36;28.83;;;19.40;;
51782;SDS011;37845;53.196;5.638;2023-06-26T03:45:02;46.97;;;20.83;;
51782;SDS011;37845;53.196;5.638;2023-06-26T03:47:28;24.38;;;17.77;;
51782;SDS011;37845;53.196;5.638;2023-06-26T03:50:09;49.40;;;20.85;;
51782;SDS011;37845;53.196;5.638;2023-06-26T03:52:34;33.50;;;18.52;;
51782;SDS011;37845;53.196;5.638;2023-06-26T03:55:00;36.70;;;17.98;;
51782;SDS011;37845;53.196;5.638;2023-06-26T03:57:26;36.42;;;18.85;;
51782;SDS011;37845;53.196;5.638;2023-06-26T03:59:57;32.95;;;17.55;;
51782;SDS011;37845;53.196;5.638;2023-06-26T04:02:23;25.92;;;15.95;;
51782;SDS011;37845;53.196;5.638;2023-06-26T04:04:48;22.85;;;16.35;;
51782;SDS011;37845;53.196;5.638;2023-06-26T04:07:14;29.60;;;14.93;;
51782;SDS011;37845;53.196;5.638;2023-06-26T04:09:40;19.55;;;12.38;;
51782;SDS011;37845;53.196;5.638;2023-06-26T04:12:06;26.60;;;12.50;;
51782;SDS011;37845;53.196;5.638;2023-06-26T04:14:32;37.25;;;11.10;;
51782;SDS011;37845;53.196;5.638;2023-06-26T04:16:58;20.35;;;10.57;;
51782;SDS011;37845;53.196;5.638;2023-06-26T04:19:26;18.00;;;10.25;;
51782;SDS011;37845;53.196;5.638;2023-06-26T04:21:52;19.55;;;8.93;;
51782;SDS011;37845;53.196;5.638;2023-06-26T04:24:18;24.65;;;9.20;;
51782;SDS011;37845;53.196;5.638;2023-06-26T04:26:43;22.00;;;8.40;;
51782;SDS011;37845;53.196;5.638;2023-06-26T04:29:10;19.42;;;8.98;;
51782;SDS011;37845;53.196;5.638;2023-06-26T04:31:36;15.82;;;8.45;;
51782;SDS011;37845;53.196;5.638;2023-06-26T04:34:02;16.50;;;7.40;;
51782;SDS011;37845;53.196;5.638;2023-06-26T04:36:27;21.00;;;8.38;;
51782;SDS011;37845;53.196;5.638;2023-06-26T04:38:54;30.38;;;8.38;;
51782;SDS011;37845;53.196;5.638;2023-06-26T04:41:21;33.22;;;10.30;;
51782;SDS011;37845;53.196;5.638;2023-06-26T04:43:46;32.15;;;8.55;;
51782;SDS011;37845;53.196;5.638;2023-06-26T04:46:12;24.17;;;8.48;;
51782;SDS011;37845;53.196;5.638;2023-06-26T04:48:38;33.47;;;8.88;;
51782;SDS011;37845;53.196;5.638;2023-06-26T04:51:04;19.75;;;7.25;;
51782;SDS011;37845;53.196;5.638;2023-06-26T04:53:29;28.38;;;7.80;;
51782;SDS011;37845;53.196;5.638;2023-06-26T04:55:55;29.08;;;8.75;;
51782;SDS011;37845;53.196;5.638;2023-06-26T04:58:21;18.20;;;7.50;;
51782;SDS011;37845;53.196;5.638;2023-06-26T05:00:52;22.83;;;7.55;;
51782;SDS011;37845;53.196;5.638;2023-06-26T05:03:17;27.35;;;7.43;;
51782;SDS011;37845;53.196;5.638;2023-06-26T05:05:43;26.02;;;7.10;;
51782;SDS011;37845;53.196;5.638;2023-06-26T05:08:22;20.92;;;8.13;;
51782;SDS011;37845;53.196;5.638;2023-06-26T05:10:51;20.00;;;6.50;;
51782;SDS011;37845;53.196;5.638;2023-06-26T05:13:18;13.18;;;6.40;;
51782;SDS011;37845;53.196;5.638;2023-06-26T05:15:48;13.32;;;5.53;;
51782;SDS011;37845;53.196;5.638;2023-06-26T05:18:14;14.73;;;5.88;;
51782;SDS011;37845;53.196;5.638;2023-06-26T05:20:41;22.02;;;7.40;;
51782;SDS011;37845;53.196;5.638;2023-06-26T05:23:07;21.02;;;5.85;;
51782;SDS011;37845;53.196;5.638;2023-06-26T05:25:33;18.42;;;6.20;;
51782;SDS011;37845;53.196;5.638;2023-06-26T05:28:02;18.25;;;5.85;;
51782;SDS011;37845;53.196;5.638;2023-06-26T05:30:30;14.57;;;4.82;;
51782;SDS011;37845;53.196;5.638;2023-06-26T05:33:00;21.30;;;6.20;;
51782;SDS011;37845;53.196;5.638;2023-06-26T05:35:28;12.07;;;5.72;;
51782;SDS011;37845;53.196;5.638;2023-06-26T05:37:55;9.95;;;4.60;;
51782;SDS011;37845;53.196;5.638;2023-06-26T05:40:22;15.40;;;5.05;;
51782;SDS011;37845;53.196;5.638;2023-06-26T05:42:48;20.55;;;5.20;;
51782;SDS011;37845;53.196;5.638;2023-06-26T05:45:14;14.65;;;5.65;;
51782;SDS011;37845;53.196;5.638;2023-06-26T05:47:41;11.68;;;5.18;;
51782;SDS011;37845;53.196;5.638;2023-06-26T05:50:08;21.90;;;7.15;;
51782;SDS011;37845;53.196;5.638;2023-06-26T05:52:35;17.90;;;5.43;;
51782;SDS011;37845;53.196;5.638;2023-06-26T05:55:02;21.98;;;5.68;;
51782;SDS011;37845;53.196;5.638;2023-06-26T05:57:28;12.52;;;4.82;;
51782;SDS011;37845;53.196;5.638;2023-06-26T05:59:55;22.85;;;6.90;;
51782;SDS011;37845;53.196;5.638;2023-06-26T06:02:21;21.63;;;5.55;;
51782;SDS011;37845;53.196;5.638;2023-06-26T06:04:47;12.98;;;5.05;;
51782;SDS011;37845;53.196;5.638;2023-06-26T06:07:13;17.48;;;5.20;;
51782;SDS011;37845;53.196;5.638;2023-06-26T06:09:39;13.45;;;5.43;;
51782;SDS011;37845;53.196;5.638;2023-06-26T06:12:05;22.70;;;6.55;;
51782;SDS011;37845;53.196;5.638;2023-06-26T06:14:33;17.65;;;5.22;;
51782;SDS011;37845;53.196;5.638;2023-06-26T06:16:59;18.83;;;5.05;;
51782;SDS011;37845;53.196;5.638;2023-06-26T06:19:25;24.63;;;5.60;;
51782;SDS011;37845;53.196;5.638;2023-06-26T06:21:51;17.02;;;6.15;;
51782;SDS011;37845;53.196;5.638;2023-06-26T06:24:17;16.17;;;5.28;;
51782;SDS011;37845;53.196;5.638;2023-06-26T06:26:43;14.20;;;5.40;;
51782;SDS011;37845;53.196;5.638;2023-06-26T06:29:08;14.48;;;4.50;;
51782;SDS011;37845;53.196;5.638;2023-06-26T06:31:34;17.95;;;4.15;;
51782;SDS011;37845;53.196;5.638;2023-06-26T06:34:00;8.35;;;3.47;;
51782;SDS011;37845;53.196;5.638;2023-06-26T06:36:26;9.27;;;4.25;;
51782;SDS011;37845;53.196;5.638;2023-06-26T06:38:52;11.93;;;5.20;;
51782;SDS011;37845;53.196;5.638;2023-06-26T06:41:19;14.68;;;5.20;;
51782;SDS011;37845;53.196;5.638;2023-06-26T06:43:45;21.98;;;5.38;;
51782;SDS011;37845;53.196;5.638;2023-06-26T06:46:11;15.15;;;4.75;;
51782;SDS011;37845;53.196;5.638;2023-06-26T06:48:37;21.15;;;4.85;;
51782;SDS011;37845;53.196;5.638;2023-06-26T06:51:03;14.25;;;4.72;;
51782;SDS011;37845;53.196;5.638;2023-06-26T06:53:29;11.25;;;4.70;;
51782;SDS011;37845;53.196;5.638;2023-06-26T06:55:55;14.13;;;5.22;;
51782;SDS011;37845;53.196;5.638;2023-06-26T06:58:21;11.15;;;3.90;;
51782;SDS011;37845;53.196;5.638;2023-06-26T07:00:48;12.20;;;4.35;;
51782;SDS011;37845;53.196;5.638;2023-06-26T07:03:14;17.30;;;5.20;;
51782;SDS011;37845;53.196;5.638;2023-06-26T07:05:43;16.08;;;5.75;;
51782;SDS011;37845;53.196;5.638;2023-06-26T07:08:09;11.98;;;5.70;;
51782;SDS011;37845;53.196;5.638;2023-06-26T07:10:35;21.55;;;5.25;;
51782;SDS011;37845;53.196;5.638;2023-06-26T07:13:01;10.60;;;4.47;;
51782;SDS011;37845;53.196;5.638;2023-06-26T07:15:27;11.02;;;5.35;;
51782;SDS011;37845;53.196;5.638;2023-06-26T07:17:52;12.75;;;4.85;;
51782;SDS011;37845;53.196;5.638;2023-06-26T07:20:18;12.10;;;4.55;;
51782;SDS011;37845;53.196;5.638;2023-06-26T07:22:44;19.90;;;5.85;;
51782;SDS011;37845;53.196;5.638;2023-06-26T07:25:10;16.58;;;5.43;;
51782;SDS011;37845;53.196;5.638;2023-06-26T07:27:40;13.32;;;6.00;;
51782;SDS011;37845;53.196;5.638;2023-06-26T07:30:06;7.82;;;3.85;;
51782;SDS011;37845;53.196;5.638;2023-06-26T07:32:36;16.52;;;5.18;;
51782;SDS011;37845;53.196;5.638;2023-06-26T07:35:02;13.98;;;5.88;;
51782;SDS011;37845;53.196;5.638;2023-06-26T07:37:28;14.50;;;5.30;;
51782;SDS011;37845;53.196;5.638;2023-06-26T07:39:54;12.88;;;5.07;;
51782;SDS011;37845;53.196;5.638;2023-06-26T07:42:20;11.93;;;5.15;;
51782;SDS011;37845;53.196;5.638;2023-06-26T07:44:45;19.77;;;5.00;;
51782;SDS011;37845;53.196;5.638;2023-06-26T07:47:11;11.18;;;4.22;;
51782;SDS011;37845;53.196;5.638;2023-06-26T07:49:37;10.50;;;4.60;;
51782;SDS011;37845;53.196;5.638;2023-06-26T07:52:04;13.82;;;4.68;;
51782;SDS011;37845;53.196;5.638;2023-06-26T07:54:30;15.35;;;4.13;;
51782;SDS011;37845;53.196;5.638;2023-06-26T07:57:02;14.60;;;5.90;;
51782;SDS011;37845;53.196;5.638;2023-06-26T07:59:32;11.30;;;5.93;;
51782;SDS011;37845;53.196;5.638;2023-06-26T08:01:58;20.30;;;6.45;;
51782;SDS011;37845;53.196;5.638;2023-06-26T08:04:27;15.90;;;7.13;;
51782;SDS011;37845;53.196;5.638;2023-06-26T08:06:59;16.75;;;6.28;;
51782;SDS011;37845;53.196;5.638;2023-06-26T08:09:27;18.42;;;7.32;;
51782;SDS011;37845;53.196;5.638;2023-06-26T08:11:54;13.02;;;5.80;;
51782;SDS011;37845;53.196;5.638;2023-06-26T08:14:20;14.63;;;6.57;;
51782;SDS011;37845;53.196;5.638;2023-06-26T08:16:46;12.73;;;6.78;;
51782;SDS011;37845;53.196;5.638;2023-06-26T08:19:13;21.77;;;7.85;;
51782;SDS011;37845;53.196;5.638;2023-06-26T08:21:43;20.35;;;6.68;;
51782;SDS011;37845;53.196;5.638;2023-06-26T08:24:10;23.35;;;7.93;;
51782;SDS011;37845;53.196;5.638;2023-06-26T08:26:36;16.48;;;7.60;;
51782;SDS011;37845;53.196;5.638;2023-06-26T08:29:02;16.80;;;8.35;;
51782;SDS011;37845;53.196;5.638;2023-06-26T08:31:33;15.95;;;7.70;;
51782;SDS011;37845;53.196;5.638;2023-06-26T08:33:59;11.20;;;7.65;;
51782;SDS011;37845;53.196;5.638;2023-06-26T08:36:26;12.48;;;6.20;;
51782;SDS011;37845;53.196;5.638;2023-06-26T08:38:51;20.80;;;7.40;;
51782;SDS011;37845;53.196;5.638;2023-06-26T08:41:17;23.50;;;6.75;;
51782;SDS011;37845;53.196;5.638;2023-06-26T08:43:43;12.95;;;6.57;;
51782;SDS011;37845;53.196;5.638;2023-06-26T08:46:09;11.63;;;5.35;;
51782;SDS011;37845;53.196;5.638;2023-06-26T08:48:35;13.85;;;6.35;;
51782;SDS011;37845;53.196;5.638;2023-06-26T08:51:05;16.00;;;7.35;;
51782;SDS011;37845;53.196;5.638;2023-06-26T08:56:36;16.25;;;8.32;;
51782;SDS011;37845;53.196;5.638;2023-06-26T08:59:05;17.38;;;8.38;;
51782;SDS011;37845;53.196;5.638;2023-06-26T09:01:32;22.48;;;8.48;;
51782;SDS011;37845;53.196;5.638;2023-06-26T09:03:58;17.83;;;8.85;;
51782;SDS011;37845;53.196;5.638;2023-06-26T09:06:24;16.90;;;8.65;;
51782;SDS011;37845;53.196;5.638;2023-06-26T09:08:50;17.73;;;10.07;;
51782;SDS011;37845;53.196;5.638;2023-06-26T09:11:17;17.50;;;9.77;;
51782;SDS011;37845;53.196;5.638;2023-06-26T09:13:43;17.48;;;9.05;;
51782;SDS011;37845;53.196;5.638;2023-06-26T09:16:09;15.18;;;9.27;;
51782;SDS011;37845;53.196;5.638;2023-06-26T09:18:35;13.95;;;7.80;;
51782;SDS011;37845;53.196;5.638;2023-06-26T09:21:05;14.80;;;7.57;;
51782;SDS011;37845;53.196;5.638;2023-06-26T09:23:33;12.95;;;6.82;;
51782;SDS011;37845;53.196;5.638;2023-06-26T09:25:59;11.30;;;6.57;;
51782;SDS011;37845;53.196;5.638;2023-06-26T09:28:31;16.35;;;6.60;;
51782;SDS011;37845;53.196;5.638;2023-06-26T09:31:05;18.30;;;5.70;;
51782;SDS011;37845;53.196;5.638;2023-06-26T09:33:35;18.35;;;5.78;;
51782;SDS011;37845;53.196;5.638;2023-06-26T09:36:04;16.40;;;5.30;;
51782;SDS011;37845;53.196;5.638;2023-06-26T09:38:35;23.88;;;6.22;;
51782;SDS011;37845;53.196;5.638;2023-06-26T09:41:01;14.38;;;5.40;;
51782;SDS011;37845;53.196;5.638;2023-06-26T09:43:28;12.18;;;4.95;;
51782;SDS011;37845;53.196;5.638;2023-06-26T09:45:56;11.00;;;4.53;;
51782;SDS011;37845;53.196;5.638;2023-06-26T09:48:21;15.13;;;5.25;;
51782;SDS011;37845;53.196;5.638;2023-06-26T09:50:48;12.15;;;4.50;;
51782;SDS011;37845;53.196;5.638;2023-06-26T09:53:14;15.40;;;4.60;;
51782;SDS011;37845;53.196;5.638;2023-06-26T09:55:40;10.35;;;3.72;;
51782;SDS011;37845;53.196;5.638;2023-06-26T09:58:10;11.30;;;4.88;;
51782;SDS011;37845;53.196;5.638;2023-06-26T10:00:40;14.07;;;5.05;;
51782;SDS011;37845;53.196;5.638;2023-06-26T10:03:07;12.20;;;4.75;;
51782;SDS011;37845;53.196;5.638;2023-06-26T10:05:33;17.17;;;4.57;;
51782;SDS011;37845;53.196;5.638;2023-06-26T10:08:00;20.08;;;5.03;;
51782;SDS011;37845;53.196;5.638;2023-06-26T10:10:27;14.63;;;4.47;;
51782;SDS011;37845;53.196;5.638;2023-06-26T10:12:59;12.55;;;4.07;;
51782;SDS011;37845;53.196;5.638;2023-06-26T10:15:28;14.27;;;4.03;;
51782;SDS011;37845;53.196;5.638;2023-06-26T10:17:55;22.33;;;5.53;;
51782;SDS011;37845;53.196;5.638;2023-06-26T10:20:22;17.30;;;5.35;;
51782;SDS011;37845;53.196;5.638;2023-06-26T10:22:50;8.30;;;4.13;;
51782;SDS011;37845;53.196;5.638;2023-06-26T10:25:18;13.40;;;5.00;;
51782;SDS011;37845;53.196;5.638;2023-06-26T10:27:47;19.33;;;4.85;;
51782;SDS011;37845;53.196;5.638;2023-06-26T10:30:21;15.52;;;5.28;;
51782;SDS011;37845;53.196;5.638;2023-06-26T10:32:49;17.33;;;5.00;;
51782;SDS011;37845;53.196;5.638;2023-06-26T10:35:15;18.23;;;5.40;;
51782;SDS011;37845;53.196;5.638;2023-06-26T10:37:45;10.75;;;4.15;;
51782;SDS011;37845;53.196;5.638;2023-06-26T10:40:13;18.52;;;4.05;;
51782;SDS011;37845;53.196;5.638;2023-06-26T10:42:46;17.95;;;4.80;;
51782;SDS011;37845;53.196;5.638;2023-06-26T10:45:15;15.70;;;5.47;;
51782;SDS011;37845;53.196;5.638;2023-06-26T10:47:43;15.73;;;4.80;;
51782;SDS011;37845;53.196;5.638;2023-06-26T10:50:19;15.80;;;4.55;;
51782;SDS011;37845;53.196;5.638;2023-06-26T10:55:44;15.85;;;5.10;;
51782;SDS011;37845;53.196;5.638;2023-06-26T11:03:41;13.27;;;5.82;;
51782;SDS011;37845;53.196;5.638;2023-06-26T11:06:19;10.20;;;4.90;;
51782;SDS011;37845;53.196;5.638;2023-06-26T11:08:50;21.15;;;6.85;;
51782;SDS011;37845;53.196;5.638;2023-06-26T11:12:09;16.10;;;6.13;;
51782;SDS011;37845;53.196;5.638;2023-06-26T11:14:20;17.60;;;6.47;;
51782;SDS011;37845;53.196;5.638;2023-06-26T11:16:49;20.88;;;5.90;;
51782;SDS011;37845;53.196;5.638;2023-06-26T11:19:16;15.20;;;5.18;;
51782;SDS011;37845;53.196;5.638;2023-06-26T11:21:43;13.63;;;5.32;;
51782;SDS011;37845;53.196;5.638;2023-06-26T11:24:09;16.75;;;5.38;;
51782;SDS011;37845;53.196;5.638;2023-06-26T11:26:43;19.33;;;5.07;;
51782;SDS011;37845;53.196;5.638;2023-06-26T11:29:10;16.35;;;4.93;;
51782;SDS011;37845;53.196;5.638;2023-06-26T11:31:37;28.08;;;6.53;;
51782;SDS011;37845;53.196;5.638;2023-06-26T11:34:05;15.50;;;4.88;;
51782;SDS011;37845;53.196;5.638;2023-06-26T11:36:41;15.40;;;5.00;;
51782;SDS011;37845;53.196;5.638;2023-06-26T11:39:07;17.05;;;5.30;;
51782;SDS011;37845;53.196;5.638;2023-06-26T11:41:34;22.23;;;6.25;;
51782;SDS011;37845;53.196;5.638;2023-06-26T11:44:01;23.02;;;6.35;;
51782;SDS011;37845;53.196;5.638;2023-06-26T11:46:28;14.15;;;5.50;;
51782;SDS011;37845;53.196;5.638;2023-06-26T11:48:55;12.63;;;5.63;;
51782;SDS011;37845;53.196;5.638;2023-06-26T11:51:21;16.98;;;5.57;;
51782;SDS011;37845;53.196;5.638;2023-06-26T11:53:47;16.90;;;6.10;;
51782;SDS011;37845;53.196;5.638;2023-06-26T11:56:14;20.77;;;7.05;;
51782;SDS011;37845;53.196;5.638;2023-06-26T12:01:39;19.02;;;5.22;;
51782;SDS011;37845;53.196;5.638;2023-06-26T12:04:11;15.65;;;5.05;;
51782;SDS011;37845;53.196;5.638;2023-06-26T12:06:38;14.20;;;5.43;;
51782;SDS011;37845;53.196;5.638;2023-06-26T12:09:07;15.63;;;5.90;;
51782;SDS011;37845;53.196;5.638;2023-06-26T12:11:35;15.27;;;5.70;;
51782;SDS011;37845;53.196;5.638;2023-06-26T12:14:03;16.30;;;6.15;;
51782;SDS011;37845;53.196;5.638;2023-06-26T12:16:33;11.38;;;4.93;;
51782;SDS011;37845;53.196;5.638;2023-06-26T12:19:01;26.75;;;6.75;;
51782;SDS011;37845;53.196;5.638;2023-06-26T12:24:02;17.25;;;6.25;;
51782;SDS011;37845;53.196;5.638;2023-06-26T12:26:29;12.95;;;5.97;;
51782;SDS011;37845;53.196;5.638;2023-06-26T12:29:05;15.90;;;6.22;;
51782;SDS011;37845;53.196;5.638;2023-06-26T12:31:32;15.20;;;5.45;;
51782;SDS011;37845;53.196;5.638;2023-06-26T12:33:58;14.75;;;6.63;;
51782;SDS011;37845;53.196;5.638;2023-06-26T12:36:39;14.85;;;5.30;;
51782;SDS011;37845;53.196;5.638;2023-06-26T12:39:08;15.70;;;5.78;;
51782;SDS011;37845;53.196;5.638;2023-06-26T12:41:43;18.88;;;5.82;;
51782;SDS011;37845;53.196;5.638;2023-06-26T12:44:29;18.13;;;5.47;;
51782;SDS011;37845;53.196;5.638;2023-06-26T12:46:59;13.13;;;6.63;;
51782;SDS011;37845;53.196;5.638;2023-06-26T12:49:35;13.98;;;5.13;;
51782;SDS011;37845;53.196;5.638;2023-06-26T12:52:03;18.45;;;6.00;;
51782;SDS011;37845;53.196;5.638;2023-06-26T12:54:40;18.75;;;5.18;;
51782;SDS011;37845;53.196;5.638;2023-06-26T12:57:08;9.25;;;4.75;;
51782;SDS011;37845;53.196;5.638;2023-06-26T12:59:35;20.27;;;5.00;;
51782;SDS011;37845;53.196;5.638;2023-06-26T13:02:02;14.98;;;5.47;;
51782;SDS011;37845;53.196;5.638;2023-06-26T13:04:28;13.98;;;5.00;;
51782;SDS011;37845;53.196;5.638;2023-06-26T13:06:54;12.10;;;4.63;;
51782;SDS011;37845;53.196;5.638;2023-06-26T13:09:21;15.32;;;5.28;;
51782;SDS011;37845;53.196;5.638;2023-06-26T13:11:50;17.88;;;5.07;;
51782;SDS011;37845;53.196;5.638;2023-06-26T13:14:17;14.85;;;5.50;;
51782;SDS011;37845;53.196;5.638;2023-06-26T13:16:42;20.25;;;5.15;;
51782;SDS011;37845;53.196;5.638;2023-06-26T13:19:08;12.77;;;4.93;;
51782;SDS011;37845;53.196;5.638;2023-06-26T13:21:34;21.27;;;6.65;;
51782;SDS011;37845;53.196;5.638;2023-06-26T13:24:00;18.23;;;5.07;;
51782;SDS011;37845;53.196;5.638;2023-06-26T13:26:28;11.45;;;4.30;;
51782;SDS011;37845;53.196;5.638;2023-06-26T13:28:54;12.75;;;4.60;;
51782;SDS011;37845;53.196;5.638;2023-06-26T13:31:20;19.65;;;6.15;;
51782;SDS011;37845;53.196;5.638;2023-06-26T13:33:46;15.95;;;5.18;;
51782;SDS011;37845;53.196;5.638;2023-06-26T13:36:22;21.90;;;5.23;;
51782;SDS011;37845;53.196;5.638;2023-06-26T13:38:48;10.82;;;5.25;;
51782;SDS011;37845;53.196;5.638;2023-06-26T13:41:20;11.77;;;5.10;;
51782;SDS011;37845;53.196;5.638;2023-06-26T13:43:47;13.60;;;5.47;;
51782;SDS011;37845;53.196;5.638;2023-06-26T13:46:13;16.95;;;5.32;;
51782;SDS011;37845;53.196;5.638;2023-06-26T13:48:39;18.38;;;5.30;;
51782;SDS011;37845;53.196;5.638;2023-06-26T13:51:05;12.52;;;4.47;;
51782;SDS011;37845;53.196;5.638;2023-06-26T13:53:31;15.75;;;4.65;;
51782;SDS011;37845;53.196;5.638;2023-06-26T13:55:57;22.33;;;6.05;;
51782;SDS011;37845;53.196;5.638;2023-06-26T13:58:23;19.30;;;5.35;;
51782;SDS011;37845;53.196;5.638;2023-06-26T14:00:52;20.63;;;4.88;;
51782;SDS011;37845;53.196;5.638;2023-06-26T14:03:18;9.32;;;4.43;;
51782;SDS011;37845;53.196;5.638;2023-06-26T14:05:44;14.95;;;4.63;;
51782;SDS011;37845;53.196;5.638;2023-06-26T14:08:10;10.02;;;4.22;;
51782;SDS011;37845;53.196;5.638;2023-06-26T14:10:36;20.73;;;5.00;;
51782;SDS011;37845;53.196;5.638;2023-06-26T14:13:02;13.80;;;4.50;;
51782;SDS011;37845;53.196;5.638;2023-06-26T14:15:29;7.40;;;3.45;;
51782;SDS011;37845;53.196;5.638;2023-06-26T14:17:55;13.98;;;5.32;;
51782;SDS011;37845;53.196;5.638;2023-06-26T14:20:21;15.27;;;4.00;;
51782;SDS011;37845;53.196;5.638;2023-06-26T14:22:48;13.60;;;4.18;;
51782;SDS011;37845;53.196;5.638;2023-06-26T14:25:14;9.77;;;3.55;;
51782;SDS011;37845;53.196;5.638;2023-06-26T14:27:41;12.75;;;4.18;;
51782;SDS011;37845;53.196;5.638;2023-06-26T14:30:07;9.20;;;4.50;;
51782;SDS011;37845;53.196;5.638;2023-06-26T14:32:34;21.35;;;4.60;;
51782;SDS011;37845;53.196;5.638;2023-06-26T14:35:00;12.35;;;4.32;;
51782;SDS011;37845;53.196;5.638;2023-06-26T14:37:26;11.75;;;4.43;;
51782;SDS011;37845;53.196;5.638;2023-06-26T14:39:54;16.63;;;4.63;;
51782;SDS011;37845;53.196;5.638;2023-06-26T14:42:20;12.95;;;5.68;;
51782;SDS011;37845;53.196;5.638;2023-06-26T14:44:46;12.15;;;4.35;;
51782;SDS011;37845;53.196;5.638;2023-06-26T14:47:13;8.45;;;4.18;;
51782;SDS011;37845;53.196;5.638;2023-06-26T14:49:39;10.88;;;3.83;;
51782;SDS011;37845;53.196;5.638;2023-06-26T14:52:05;10.48;;;4.18;;
51782;SDS011;37845;53.196;5.638;2023-06-26T14:54:34;11.77;;;4.35;;
51782;SDS011;37845;53.196;5.638;2023-06-26T14:57:05;14.13;;;5.10;;
51782;SDS011;37845;53.196;5.638;2023-06-26T14:59:31;11.25;;;4.10;;